sensor_id;sensor_type;location;lat;lon;timestamp;pressure;altitude;pressure_sealevel;temperature
64600;BMP280;6553;48.412;9.514;2023-03-01T00:01:19;71671.28;;;19.97
64600;BMP280;6553;48.412;9.514;2023-03-01T00:03:46;71672.97;;;19.96
64600;BMP280;6553;48.412;9.514;2023-03-01T00:06:12;71674.16;;;19.95
64600;BMP280;6553;48.412;9.514;2023-03-01T00:08:38;71678.53;;;19.96
64600;BMP280;6553;48.412;9.514;2023-03-01T00:11:05;71677.44;;;19.95
64600;BMP280;6553;48.412;9.514;2023-03-01T00:13:31;71676.28;;;19.97
64600;BMP280;6553;48.412;9.514;2023-03-01T00:15:57;71675.22;;;19.96
64600;BMP280;6553;48.412;9.514;2023-03-01T00:18:24;71671.50;;;19.92
64600;BMP280;6553;48.412;9.514;2023-03-01T00:20:55;71671.50;;;19.92
64600;BMP280;6553;48.412;9.514;2023-03-01T00:23:22;71674.69;;;19.95
64600;BMP280;6553;48.412;9.514;2023-03-01T00:25:49;71667.66;;;19.91
64600;BMP280;6553;48.412;9.514;2023-03-01T00:28:15;71676.38;;;19.94
64600;BMP280;6553;48.412;9.514;2023-03-01T00:30:41;71672.44;;;19.96
64600;BMP280;6553;48.412;9.514;2023-03-01T00:33:07;71670.97;;;19.92
64600;BMP280;6553;48.412;9.514;2023-03-01T00:35:33;71670.44;;;19.91
64600;BMP280;6553;48.412;9.514;2023-03-01T00:38:00;71667.66;;;19.91
64600;BMP280;6553;48.412;9.514;2023-03-01T00:40:28;71671.50;;;19.92
64600;BMP280;6553;48.412;9.514;2023-03-01T00:42:54;71666.06;;;19.90
64600;BMP280;6553;48.412;9.514;2023-03-01T00:45:21;71671.63;;;19.90
64600;BMP280;6553;48.412;9.514;2023-03-01T00:47:48;71669.25;;;19.93
64600;BMP280;6553;48.412;9.514;2023-03-01T00:50:15;71670.44;;;19.91
64600;BMP280;6553;48.412;9.514;2023-03-01T00:52:40;71669.38;;;19.90
64600;BMP280;6553;48.412;9.514;2023-03-01T00:55:07;71667.66;;;19.91
64600;BMP280;6553;48.412;9.514;2023-03-01T00:57:33;71669.91;;;19.91
64600;BMP280;6553;48.412;9.514;2023-03-01T00:59:59;71669.91;;;19.91
64600;BMP280;6553;48.412;9.514;2023-03-01T01:02:25;71666.06;;;19.90
64600;BMP280;6553;48.412;9.514;2023-03-01T01:04:52;71664.47;;;19.88
64600;BMP280;6553;48.412;9.514;2023-03-01T01:07:18;71665.53;;;19.89
64600;BMP280;6553;48.412;9.514;2023-03-01T01:09:46;71663.31;;;19.90
64600;BMP280;6553;48.412;9.514;2023-03-01T01:12:12;71670.44;;;19.91
64600;BMP280;6553;48.412;9.514;2023-03-01T01:14:38;71665.00;;;19.89
64600;BMP280;6553;48.412;9.514;2023-03-01T01:17:04;71668.31;;;19.89
64600;BMP280;6553;48.412;9.514;2023-03-01T01:19:30;71663.94;;;19.88
64600;BMP280;6553;48.412;9.514;2023-03-01T01:21:56;71668.31;;;19.89
64600;BMP280;6553;48.412;9.514;2023-03-01T01:24:22;71667.25;;;19.88
64600;BMP280;6553;48.412;9.514;2023-03-01T01:26:48;71667.13;;;19.91
64600;BMP280;6553;48.412;9.514;2023-03-01T01:29:15;71666.06;;;19.90
64600;BMP280;6553;48.412;9.514;2023-03-01T01:31:42;71669.38;;;19.90
64600;BMP280;6553;48.412;9.514;2023-03-01T01:34:15;71664.47;;;19.88
64600;BMP280;6553;48.412;9.514;2023-03-01T01:36:42;71667.25;;;19.88
64600;BMP280;6553;48.412;9.514;2023-03-01T01:39:08;71662.34;;;19.86
64600;BMP280;6553;48.412;9.514;2023-03-01T01:41:40;71665.13;;;19.86
64600;BMP280;6553;48.412;9.514;2023-03-01T01:44:23;71664.59;;;19.86
64600;BMP280;6553;48.412;9.514;2023-03-01T01:47:05;71664.59;;;19.86
64600;BMP280;6553;48.412;9.514;2023-03-01T01:49:47;71666.81;;;19.85
64600;BMP280;6553;48.412;9.514;2023-03-01T01:52:35;71664.06;;;19.85
64600;BMP280;6553;48.412;9.514;2023-03-01T01:55:09;71659.59;;;19.86
64600;BMP280;6553;48.412;9.514;2023-03-01T01:57:40;71660.13;;;19.87
64600;BMP280;6553;48.412;9.514;2023-03-01T02:00:18;71664.59;;;19.86
64600;BMP280;6553;48.412;9.514;2023-03-01T02:02:49;71662.34;;;19.86
64600;BMP280;6553;48.412;9.514;2023-03-01T02:08:02;71664.59;;;19.86
64600;BMP280;6553;48.412;9.514;2023-03-01T02:10:32;71660.75;;;19.85
64600;BMP280;6553;48.412;9.514;2023-03-01T02:13:00;71662.47;;;19.84
64600;BMP280;6553;48.412;9.514;2023-03-01T02:15:26;71664.19;;;19.83
64600;BMP280;6553;48.412;9.514;2023-03-01T02:17:54;71664.19;;;19.83
64600;BMP280;6553;48.412;9.514;2023-03-01T02:21:01;71658.66;;;19.83
64600;BMP280;6553;48.412;9.514;2023-03-01T02:23:30;71660.34;;;19.82
64600;BMP280;6553;48.412;9.514;2023-03-01T02:26:29;71664.72;;;19.83
64600;BMP280;6553;48.412;9.514;2023-03-01T02:28:59;71660.34;;;19.82
64600;BMP280;6553;48.412;9.514;2023-03-01T02:31:25;71655.34;;;19.82
64600;BMP280;6553;48.412;9.514;2023-03-01T02:34:18;71659.19;;;19.83
64600;BMP280;6553;48.412;9.514;2023-03-01T02:37:04;71655.88;;;19.83
64600;BMP280;6553;48.412;9.514;2023-03-01T02:39:42;71659.19;;;19.83
64600;BMP280;6553;48.412;9.514;2023-03-01T02:42:14;71659.28;;;19.81
64600;BMP280;6553;48.412;9.514;2023-03-01T02:44:41;71658.09;;;19.82
64600;BMP280;6553;48.412;9.514;2023-03-01T02:47:06;71661.00;;;19.80
64600;BMP280;6553;48.412;9.514;2023-03-01T02:49:35;71657.69;;;19.79
64600;BMP280;6553;48.412;9.514;2023-03-01T02:55:12;71662.56;;;19.81
64600;BMP280;6553;48.412;9.514;2023-03-01T02:57:43;71654.94;;;19.79
64600;BMP280;6553;48.412;9.514;2023-03-01T03:00:13;71659.28;;;19.81
64600;BMP280;6553;48.412;9.514;2023-03-01T03:02:49;71657.16;;;19.79
64600;BMP280;6553;48.412;9.514;2023-03-01T03:05:27;71657.16;;;19.79
64600;BMP280;6553;48.412;9.514;2023-03-01T03:07:59;71658.25;;;19.80
64600;BMP280;6553;48.412;9.514;2023-03-01T03:10:34;71658.09;;;19.82
64600;BMP280;6553;48.412;9.514;2023-03-01T03:13:14;71661.00;;;19.80
64600;BMP280;6553;48.412;9.514;2023-03-01T03:19:47;71650.56;;;19.78
64600;BMP280;6553;48.412;9.514;2023-03-01T03:22:13;71654.41;;;19.79
64600;BMP280;6553;48.412;9.514;2023-03-01T03:24:39;71657.16;;;19.79
64600;BMP280;6553;48.412;9.514;2023-03-01T03:27:06;71656.63;;;19.78
64600;BMP280;6553;48.412;9.514;2023-03-01T03:29:33;71656.09;;;19.78
64600;BMP280;6553;48.412;9.514;2023-03-01T03:31:59;71656.09;;;19.78
64600;BMP280;6553;48.412;9.514;2023-03-01T03:34:25;71653.88;;;19.78
64600;BMP280;6553;48.412;9.514;2023-03-01T03:36:55;71652.28;;;19.77
64600;BMP280;6553;48.412;9.514;2023-03-01T03:39:23;71656.09;;;19.78
64600;BMP280;6553;48.412;9.514;2023-03-01T03:41:49;71651.75;;;19.76
64600;BMP280;6553;48.412;9.514;2023-03-01T03:44:15;71651.75;;;19.76
64600;BMP280;6553;48.412;9.514;2023-03-01T03:46:40;71652.78;;;19.77
64600;BMP280;6553;48.412;9.514;2023-03-01T03:49:06;71655.47;;;19.80
64600;BMP280;6553;48.412;9.514;2023-03-01T03:51:32;71652.28;;;19.77
64600;BMP280;6553;48.412;9.514;2023-03-01T03:53:58;71654.50;;;19.76
64600;BMP280;6553;48.412;9.514;2023-03-01T03:56:23;71651.19;;;19.76
64600;BMP280;6553;48.412;9.514;2023-03-01T03:58:52;71654.50;;;19.76
64600;BMP280;6553;48.412;9.514;2023-03-01T04:01:18;71654.50;;;19.76
64600;BMP280;6553;48.412;9.514;2023-03-01T04:03:44;71648.97;;;19.76
64600;BMP280;6553;48.412;9.514;2023-03-01T04:06:14;71653.97;;;19.76
64600;BMP280;6553;48.412;9.514;2023-03-01T04:08:40;71650.25;;;19.72
64600;BMP280;6553;48.412;9.514;2023-03-01T04:11:06;71650.25;;;19.72
64600;BMP280;6553;48.412;9.514;2023-03-01T04:13:53;71647.38;;;19.75
64600;BMP280;6553;48.412;9.514;2023-03-01T04:16:20;71650.69;;;19.75
64600;BMP280;6553;48.412;9.514;2023-03-01T04:18:46;71650.69;;;19.75
64600;BMP280;6553;48.412;9.514;2023-03-01T04:21:12;71648.44;;;19.76
64600;BMP280;6553;48.412;9.514;2023-03-01T04:23:38;71650.78;;;19.73
64600;BMP280;6553;48.412;9.514;2023-03-01T04:26:04;71651.31;;;19.73
64600;BMP280;6553;48.412;9.514;2023-03-01T04:28:32;71646.84;;;19.74
64600;BMP280;6553;48.412;9.514;2023-03-01T04:31:05;71651.84;;;19.74
64600;BMP280;6553;48.412;9.514;2023-03-01T04:33:50;71649.63;;;19.74
64600;BMP280;6553;48.412;9.514;2023-03-01T04:36:23;71648.56;;;19.73
64600;BMP280;6553;48.412;9.514;2023-03-01T04:38:49;71651.31;;;19.73
64600;BMP280;6553;48.412;9.514;2023-03-01T04:41:18;71651.84;;;19.74
64600;BMP280;6553;48.412;9.514;2023-03-01T04:43:45;71652.50;;;19.72
64600;BMP280;6553;48.412;9.514;2023-03-01T04:46:15;71644.19;;;19.72
64600;BMP280;6553;48.412;9.514;2023-03-01T04:48:43;71648.03;;;19.73
64600;BMP280;6553;48.412;9.514;2023-03-01T04:51:10;71644.19;;;19.72
64600;BMP280;6553;48.412;9.514;2023-03-01T04:53:40;71644.19;;;19.72
64600;BMP280;6553;48.412;9.514;2023-03-01T04:56:07;71646.94;;;19.72
64600;BMP280;6553;48.412;9.514;2023-03-01T04:58:33;71646.41;;;19.71
64600;BMP280;6553;48.412;9.514;2023-03-01T05:00:58;71646.94;;;19.72
64600;BMP280;6553;48.412;9.514;2023-03-01T05:03:24;71650.25;;;19.72
64600;BMP280;6553;48.412;9.514;2023-03-01T05:05:52;71647.50;;;19.72
64600;BMP280;6553;48.412;9.514;2023-03-01T05:08:18;71645.25;;;19.73
64600;BMP280;6553;48.412;9.514;2023-03-01T05:10:50;71651.31;;;19.73
64600;BMP280;6553;48.412;9.514;2023-03-01T05:13:18;71650.78;;;19.73
64600;BMP280;6553;48.412;9.514;2023-03-01T05:16:00;71649.63;;;19.74
64600;BMP280;6553;48.412;9.514;2023-03-01T05:18:29;71648.66;;;19.71
64600;BMP280;6553;48.412;9.514;2023-03-01T05:21:07;71643.66;;;19.71
64600;BMP280;6553;48.412;9.514;2023-03-01T05:23:34;71644.72;;;19.72
64600;BMP280;6553;48.412;9.514;2023-03-01T05:26:02;71644.72;;;19.72
64600;BMP280;6553;48.412;9.514;2023-03-01T05:28:30;71654.72;;;19.71
64600;BMP280;6553;48.412;9.514;2023-03-01T05:30:56;71649.84;;;19.69
64600;BMP280;6553;48.412;9.514;2023-03-01T05:33:24;71646.00;;;19.68
64600;BMP280;6553;48.412;9.514;2023-03-01T05:35:51;71652.50;;;19.72
64600;BMP280;6553;48.412;9.514;2023-03-01T05:38:19;71646.41;;;19.71
64600;BMP280;6553;48.412;9.514;2023-03-01T05:40:48;71648.56;;;19.73
64600;BMP280;6553;48.412;9.514;2023-03-01T05:43:16;71651.31;;;19.73
64600;BMP280;6553;48.412;9.514;2023-03-01T05:45:42;71648.13;;;19.70
64600;BMP280;6553;48.412;9.514;2023-03-01T05:48:11;71653.44;;;19.75
64600;BMP280;6553;48.412;9.514;2023-03-01T05:50:43;71653.44;;;19.75
64600;BMP280;6553;48.412;9.514;2023-03-01T05:53:16;71646.84;;;19.74
64600;BMP280;6553;48.412;9.514;2023-03-01T05:55:43;71645.91;;;19.71
64600;BMP280;6553;48.412;9.514;2023-03-01T05:58:19;71650.16;;;19.75
64600;BMP280;6553;48.412;9.514;2023-03-01T06:00:48;71650.69;;;19.75
64600;BMP280;6553;48.412;9.514;2023-03-01T06:03:16;71645.78;;;19.73
64600;BMP280;6553;48.412;9.514;2023-03-01T06:05:44;71642.59;;;19.70
64600;BMP280;6553;48.412;9.514;2023-03-01T06:08:11;71651.94;;;19.71
64600;BMP280;6553;48.412;9.514;2023-03-01T06:10:37;71645.78;;;19.73
64600;BMP280;6553;48.412;9.514;2023-03-01T06:13:03;71649.63;;;19.74
64600;BMP280;6553;48.412;9.514;2023-03-01T06:15:28;71652.38;;;19.74
64600;BMP280;6553;48.412;9.514;2023-03-01T06:17:55;71652.38;;;19.74
64600;BMP280;6553;48.412;9.514;2023-03-01T06:20:27;71644.72;;;19.72
64600;BMP280;6553;48.412;9.514;2023-03-01T06:22:53;71652.38;;;19.74
64600;BMP280;6553;48.412;9.514;2023-03-01T06:25:24;71648.97;;;19.76
64600;BMP280;6553;48.412;9.514;2023-03-01T06:27:50;71651.19;;;19.76
64600;BMP280;6553;48.412;9.514;2023-03-01T06:30:20;71654.50;;;19.76
64600;BMP280;6553;48.412;9.514;2023-03-01T06:32:46;71653.97;;;19.76
64600;BMP280;6553;48.412;9.514;2023-03-01T06:35:14;71654.50;;;19.76
64600;BMP280;6553;48.412;9.514;2023-03-01T06:37:43;71647.91;;;19.75
64600;BMP280;6553;48.412;9.514;2023-03-01T06:40:11;71653.97;;;19.76
64600;BMP280;6553;48.412;9.514;2023-03-01T06:42:39;71653.44;;;19.75
64600;BMP280;6553;48.412;9.514;2023-03-01T06:45:07;71654.50;;;19.76
64600;BMP280;6553;48.412;9.514;2023-03-01T06:47:34;71650.69;;;19.75
64600;BMP280;6553;48.412;9.514;2023-03-01T06:50:00;71655.56;;;19.77
64600;BMP280;6553;48.412;9.514;2023-03-01T06:52:27;71655.69;;;19.75
64600;BMP280;6553;48.412;9.514;2023-03-01T06:54:52;71653.97;;;19.76
64600;BMP280;6553;48.412;9.514;2023-03-01T06:57:18;71652.91;;;19.75
64600;BMP280;6553;48.412;9.514;2023-03-01T06:59:44;71651.19;;;19.76
64600;BMP280;6553;48.412;9.514;2023-03-01T07:02:11;71653.31;;;19.78
64600;BMP280;6553;48.412;9.514;2023-03-01T07:04:38;71652.78;;;19.77
64600;BMP280;6553;48.412;9.514;2023-03-01T07:07:04;71655.03;;;19.77
64600;BMP280;6553;48.412;9.514;2023-03-01T07:09:30;71655.03;;;19.77
64600;BMP280;6553;48.412;9.514;2023-03-01T07:11:56;71651.09;;;19.78
64600;BMP280;6553;48.412;9.514;2023-03-01T07:14:23;71651.63;;;19.79
64600;BMP280;6553;48.412;9.514;2023-03-01T07:16:53;71658.72;;;19.80
64600;BMP280;6553;48.412;9.514;2023-03-01T07:19:20;71659.28;;;19.81
64600;BMP280;6553;48.412;9.514;2023-03-01T07:21:46;71653.72;;;19.81
64600;BMP280;6553;48.412;9.514;2023-03-01T07:24:12;71656.50;;;19.81
64600;BMP280;6553;48.412;9.514;2023-03-01T07:26:38;71660.34;;;19.82
64600;BMP280;6553;48.412;9.514;2023-03-01T07:29:06;71656.50;;;19.81
64600;BMP280;6553;48.412;9.514;2023-03-01T07:31:34;71657.56;;;19.82
64600;BMP280;6553;48.412;9.514;2023-03-01T07:34:00;71657.03;;;19.81
64600;BMP280;6553;48.412;9.514;2023-03-01T07:36:26;71658.66;;;19.83
64600;BMP280;6553;48.412;9.514;2023-03-01T07:38:52;71663.13;;;19.82
64600;BMP280;6553;48.412;9.514;2023-03-01T07:41:17;71657.56;;;19.82
64600;BMP280;6553;48.412;9.514;2023-03-01T07:43:44;71662.56;;;19.81
64600;BMP280;6553;48.412;9.514;2023-03-01T07:46:10;71658.66;;;19.83
64600;BMP280;6553;48.412;9.514;2023-03-01T07:48:36;71656.94;;;19.84
64600;BMP280;6553;48.412;9.514;2023-03-01T07:51:04;71657.56;;;19.82
64600;BMP280;6553;48.412;9.514;2023-03-01T07:53:31;71660.22;;;19.84
64600;BMP280;6553;48.412;9.514;2023-03-01T07:56:08;71661.94;;;19.83
64600;BMP280;6553;48.412;9.514;2023-03-01T07:58:36;71656.41;;;19.83
64600;BMP280;6553;48.412;9.514;2023-03-01T08:01:09;71663.53;;;19.85
64600;BMP280;6553;48.412;9.514;2023-03-01T08:03:36;71661.28;;;19.85
64600;BMP280;6553;48.412;9.514;2023-03-01T08:06:06;71664.06;;;19.85
64600;BMP280;6553;48.412;9.514;2023-03-01T08:08:33;71662.91;;;19.87
64600;BMP280;6553;48.412;9.514;2023-03-01T08:11:00;71667.25;;;19.88
64600;BMP280;6553;48.412;9.514;2023-03-01T08:13:26;71665.53;;;19.89
64600;BMP280;6553;48.412;9.514;2023-03-01T08:15:52;71668.31;;;19.89
64600;BMP280;6553;48.412;9.514;2023-03-01T08:18:20;71668.31;;;19.89
64600;BMP280;6553;48.412;9.514;2023-03-01T08:20:47;71669.91;;;19.91
64600;BMP280;6553;48.412;9.514;2023-03-01T08:23:13;71670.97;;;19.92
64600;BMP280;6553;48.412;9.514;2023-03-01T08:25:39;71667.13;;;19.91
64600;BMP280;6553;48.412;9.514;2023-03-01T08:28:05;71670.97;;;19.92
64600;BMP280;6553;48.412;9.514;2023-03-01T08:30:31;71670.44;;;19.91
64600;BMP280;6553;48.412;9.514;2023-03-01T08:32:57;71671.50;;;19.92
64600;BMP280;6553;48.412;9.514;2023-03-01T08:35:23;71670.44;;;19.91
64600;BMP280;6553;48.412;9.514;2023-03-01T08:37:49;71670.97;;;19.92
64600;BMP280;6553;48.412;9.514;2023-03-01T08:40:15;71671.50;;;19.92
64600;BMP280;6553;48.412;9.514;2023-03-01T08:42:42;71668.59;;;19.95
64600;BMP280;6553;48.412;9.514;2023-03-01T08:45:11;71673.09;;;19.94
64600;BMP280;6553;48.412;9.514;2023-03-01T08:47:39;71673.09;;;19.94
64600;BMP280;6553;48.412;9.514;2023-03-01T08:50:06;71667.00;;;19.93
64600;BMP280;6553;48.412;9.514;2023-03-01T08:52:32;71674.69;;;19.95
64600;BMP280;6553;48.412;9.514;2023-03-01T08:54:58;71675.31;;;19.93
64600;BMP280;6553;48.412;9.514;2023-03-01T08:57:27;71678.53;;;19.96
64600;BMP280;6553;48.412;9.514;2023-03-01T08:59:52;71672.97;;;19.96
64600;BMP280;6553;48.412;9.514;2023-03-01T09:02:22;71672.97;;;19.96
64600;BMP280;6553;48.412;9.514;2023-03-01T09:04:47;71674.03;;;19.97
64600;BMP280;6553;48.412;9.514;2023-03-01T09:07:13;71672.97;;;19.96
64600;BMP280;6553;48.412;9.514;2023-03-01T09:09:39;71675.75;;;19.96
64600;BMP280;6553;48.412;9.514;2023-03-01T09:12:06;71676.16;;;19.99
64600;BMP280;6553;48.412;9.514;2023-03-01T09:14:33;71681.16;;;19.99
64600;BMP280;6553;48.412;9.514;2023-03-01T09:16:58;71676.16;;;19.99
64600;BMP280;6553;48.412;9.514;2023-03-01T09:19:28;71676.28;;;19.97
64600;BMP280;6553;48.412;9.514;2023-03-01T09:21:54;71675.00;;;20.01
64600;BMP280;6553;48.412;9.514;2023-03-01T09:24:23;71681.69;;;19.99
64600;BMP280;6553;48.412;9.514;2023-03-01T09:26:53;71679.47;;;20.00
64600;BMP280;6553;48.412;9.514;2023-03-01T09:29:18;71679.34;;;20.02
64600;BMP280;6553;48.412;9.514;2023-03-01T09:31:44;71683.19;;;20.03
64600;BMP280;6553;48.412;9.514;2023-03-01T09:34:10;71678.19;;;20.04
64600;BMP280;6553;48.412;9.514;2023-03-01T09:36:37;71682.00;;;20.05
64600;BMP280;6553;48.412;9.514;2023-03-01T09:39:03;71684.25;;;20.04
64600;BMP280;6553;48.412;9.514;2023-03-01T09:46:58;71679.88;;;20.03
64600;BMP280;6553;48.412;9.514;2023-03-01T09:50:15;71678.72;;;20.04
64600;BMP280;6553;48.412;9.514;2023-03-01T09:53:07;71681.47;;;20.04
64600;BMP280;6553;48.412;9.514;2023-03-01T10:01:52;71682.66;;;20.03
64600;BMP280;6553;48.412;9.514;2023-03-01T10:04:45;71679.88;;;20.03
64600;BMP280;6553;48.412;9.514;2023-03-01T10:10:17;71686.38;;;20.06
64600;BMP280;6553;48.412;9.514;2023-03-01T10:12:47;71690.75;;;20.08
64600;BMP280;6553;48.412;9.514;2023-03-01T10:15:33;71689.03;;;20.09
64600;BMP280;6553;48.412;9.514;2023-03-01T10:18:07;71687.97;;;20.08
64600;BMP280;6553;48.412;9.514;2023-03-01T10:23:19;71688.38;;;20.11
64600;BMP280;6553;48.412;9.514;2023-03-01T10:26:05;71688.91;;;20.11
64600;BMP280;6553;48.412;9.514;2023-03-01T10:28:50;71689.97;;;20.12
64600;BMP280;6553;48.412;9.514;2023-03-01T10:31:25;71688.91;;;20.11
64600;BMP280;6553;48.412;9.514;2023-03-01T10:33:55;71691.69;;;20.11
64600;BMP280;6553;48.412;9.514;2023-03-01T10:36:23;71690.06;;;20.10
64600;BMP280;6553;48.412;9.514;2023-03-01T10:38:56;71690.63;;;20.10
64600;BMP280;6553;48.412;9.514;2023-03-01T10:41:25;71690.50;;;20.13
64600;BMP280;6553;48.412;9.514;2023-03-01T10:43:58;71687.84;;;20.10
64600;BMP280;6553;48.412;9.514;2023-03-01T10:46:37;71694.47;;;20.11
64600;BMP280;6553;48.412;9.514;2023-03-01T10:49:23;71694.97;;;20.12
64600;BMP280;6553;48.412;9.514;2023-03-01T10:51:52;71688.91;;;20.11
64600;BMP280;6553;48.412;9.514;2023-03-01T10:54:28;71693.81;;;20.13
64600;BMP280;6553;48.412;9.514;2023-03-01T10:56:58;71684.53;;;20.10
64600;BMP280;6553;48.412;9.514;2023-03-01T10:59:34;71691.16;;;20.11
64600;BMP280;6553;48.412;9.514;2023-03-01T11:04:28;71684.66;;;20.07
64600;BMP280;6553;48.412;9.514;2023-03-01T11:07:02;71688.38;;;20.11
64600;BMP280;6553;48.412;9.514;2023-03-01T11:09:33;71684.53;;;20.10
64600;BMP280;6553;48.412;9.514;2023-03-01T11:12:11;71687.84;;;20.10
64600;BMP280;6553;48.412;9.514;2023-03-01T11:14:46;71693.81;;;20.13
64600;BMP280;6553;48.412;9.514;2023-03-01T11:17:21;71689.31;;;20.14
64600;BMP280;6553;48.412;9.514;2023-03-01T11:20:13;71697.09;;;20.14
64600;BMP280;6553;48.412;9.514;2023-03-01T11:22:53;71690.50;;;20.13
64600;BMP280;6553;48.412;9.514;2023-03-01T11:25:34;71689.31;;;20.14
64600;BMP280;6553;48.412;9.514;2023-03-01T11:28:05;71695.28;;;20.17
64600;BMP280;6553;48.412;9.514;2023-03-01T11:30:54;71694.22;;;20.16
64600;BMP280;6553;48.412;9.514;2023-03-01T11:33:56;71697.53;;;20.17
64600;BMP280;6553;48.412;9.514;2023-03-01T11:36:50;71690.91;;;20.16
64600;BMP280;6553;48.412;9.514;2023-03-01T11:39:28;71697.00;;;20.16
64600;BMP280;6553;48.412;9.514;2023-03-01T11:42:10;71687.19;;;20.12
64600;BMP280;6553;48.412;9.514;2023-03-01T11:44:41;71693.28;;;20.13
64600;BMP280;6553;48.412;9.514;2023-03-01T11:50:26;71697.00;;;20.16
64600;BMP280;6553;48.412;9.514;2023-03-01T12:04:36;71700.69;;;20.20
64600;BMP280;6553;48.412;9.514;2023-03-01T12:15:39;71695.81;;;20.18
64600;BMP280;6553;48.412;9.514;2023-03-01T12:18:33;71697.41;;;20.19
64600;BMP280;6553;48.412;9.514;2023-03-01T12:30:28;71701.25;;;20.20
64600;BMP280;6553;48.412;9.514;2023-03-01T12:33:22;71701.88;;;20.18
64600;BMP280;6553;48.412;9.514;2023-03-01T12:48:40;71696.78;;;20.21
64600;BMP280;6553;48.412;9.514;2023-03-01T12:51:14;71696.78;;;20.21
64600;BMP280;6553;48.412;9.514;2023-03-01T12:53:48;71702.31;;;20.21
64600;BMP280;6553;48.412;9.514;2023-03-01T12:56:25;71697.94;;;20.20
64600;BMP280;6553;48.412;9.514;2023-03-01T12:59:35;71703.88;;;20.23
64600;BMP280;6553;48.412;9.514;2023-03-01T13:02:36;71700.56;;;20.22
64600;BMP280;6553;48.412;9.514;2023-03-01T13:05:53;71703.34;;;20.22
64600;BMP280;6553;48.412;9.514;2023-03-01T13:08:36;71708.81;;;20.25
64600;BMP280;6553;48.412;9.514;2023-03-01T13:11:14;71706.03;;;20.25
64600;BMP280;6553;48.412;9.514;2023-03-01T13:13:41;71706.03;;;20.25
64600;BMP280;6553;48.412;9.514;2023-03-01T13:19:15;71705.34;;;20.27
64600;BMP280;6553;48.412;9.514;2023-03-01T13:21:43;71705.50;;;20.24
64600;BMP280;6553;48.412;9.514;2023-03-01T13:24:37;71704.31;;;20.26
64600;BMP280;6553;48.412;9.514;2023-03-01T13:29:51;71706.97;;;20.28
64600;BMP280;6553;48.412;9.514;2023-03-01T13:32:25;71710.38;;;20.26
64600;BMP280;6553;48.412;9.514;2023-03-01T13:37:41;71705.91;;;20.27
64600;BMP280;6553;48.412;9.514;2023-03-01T13:42:56;71701.00;;;20.25
64600;BMP280;6553;48.412;9.514;2023-03-01T13:45:42;71709.19;;;20.28
64600;BMP280;6553;48.412;9.514;2023-03-01T13:48:24;71710.25;;;20.29
64600;BMP280;6553;48.412;9.514;2023-03-01T13:51:00;71709.19;;;20.28
64600;BMP280;6553;48.412;9.514;2023-03-01T13:53:33;71711.97;;;20.28
64600;BMP280;6553;48.412;9.514;2023-03-01T13:56:15;71713.56;;;20.29
64600;BMP280;6553;48.412;9.514;2023-03-01T13:58:56;71705.25;;;20.29
64600;BMP280;6553;48.412;9.514;2023-03-01T14:01:29;71706.44;;;20.28
64600;BMP280;6553;48.412;9.514;2023-03-01T14:03:57;71706.44;;;20.28
64600;BMP280;6553;48.412;9.514;2023-03-01T14:06:29;71702.59;;;20.27
64600;BMP280;6553;48.412;9.514;2023-03-01T14:12:16;71710.78;;;20.29
64600;BMP280;6553;48.412;9.514;2023-03-01T14:18:04;71717.28;;;20.33
64600;BMP280;6553;48.412;9.514;2023-03-01T14:20:44;71706.84;;;20.31
64600;BMP280;6553;48.412;9.514;2023-03-01T14:23:23;71709.06;;;20.30
64600;BMP280;6553;48.412;9.514;2023-03-01T14:25:57;71715.16;;;20.31
64600;BMP280;6553;48.412;9.514;2023-03-01T14:28:29;71711.84;;;20.30
64600;BMP280;6553;48.412;9.514;2023-03-01T14:30:59;71710.16;;;20.31
64600;BMP280;6553;48.412;9.514;2023-03-01T14:33:35;71705.25;;;20.29
64600;BMP280;6553;48.412;9.514;2023-03-01T14:36:10;71712.91;;;20.31
64600;BMP280;6553;48.412;9.514;2023-03-01T14:38:44;71713.97;;;20.32
64600;BMP280;6553;48.412;9.514;2023-03-01T14:41:23;71706.31;;;20.30
64600;BMP280;6553;48.412;9.514;2023-03-01T14:43:51;71711.84;;;20.30
64600;BMP280;6553;48.412;9.514;2023-03-01T14:46:33;71709.50;;;20.33
64600;BMP280;6553;48.412;9.514;2023-03-01T14:49:19;71715.16;;;20.31
64600;BMP280;6553;48.412;9.514;2023-03-01T14:52:04;71716.75;;;20.32
64600;BMP280;6553;48.412;9.514;2023-03-01T14:54:43;71712.28;;;20.33
64600;BMP280;6553;48.412;9.514;2023-03-01T14:57:20;71718.88;;;20.34
64600;BMP280;6553;48.412;9.514;2023-03-01T14:59:52;71714.41;;;20.35
64600;BMP280;6553;48.412;9.514;2023-03-01T15:02:24;71716.63;;;20.35
64600;BMP280;6553;48.412;9.514;2023-03-01T15:04:55;71710.03;;;20.34
64600;BMP280;6553;48.412;9.514;2023-03-01T15:07:37;71717.16;;;20.35
64600;BMP280;6553;48.412;9.514;2023-03-01T15:10:07;71717.69;;;20.36
64600;BMP280;6553;48.412;9.514;2023-03-01T15:12:41;71720.47;;;20.36
64600;BMP280;6553;48.412;9.514;2023-03-01T15:17:58;71722.88;;;20.43
64600;BMP280;6553;48.412;9.514;2023-03-01T15:20:27;71725.56;;;20.46
64600;BMP280;6553;48.412;9.514;2023-03-01T15:22:56;71729.91;;;20.47
64600;BMP280;6553;48.412;9.514;2023-03-01T15:25:28;71734.16;;;20.51
64600;BMP280;6553;48.412;9.514;2023-03-01T15:27:58;71728.63;;;20.51
64600;BMP280;6553;48.412;9.514;2023-03-01T15:30:33;71728.63;;;20.51
64600;BMP280;6553;48.412;9.514;2023-03-01T15:33:29;71734.81;;;20.49
64600;BMP280;6553;48.412;9.514;2023-03-01T15:35:57;71732.81;;;20.45
64600;BMP280;6553;48.412;9.514;2023-03-01T15:38:33;71727.78;;;20.45
64600;BMP280;6553;48.412;9.514;2023-03-01T15:41:03;71729.50;;;20.44
64600;BMP280;6553;48.412;9.514;2023-03-01T15:43:45;71728.97;;;20.44
64600;BMP280;6553;48.412;9.514;2023-03-01T15:46:33;71721.19;;;20.44
64600;BMP280;6553;48.412;9.514;2023-03-01T15:49:40;71722.38;;;20.43
64600;BMP280;6553;48.412;9.514;2023-03-01T15:52:22;71721.84;;;20.42
64600;BMP280;6553;48.412;9.514;2023-03-01T15:54:57;71720.78;;;20.41
64600;BMP280;6553;48.412;9.514;2023-03-01T15:57:23;71724.09;;;20.42
64600;BMP280;6553;48.412;9.514;2023-03-01T15:59:49;71716.41;;;20.40
64600;BMP280;6553;48.412;9.514;2023-03-01T16:02:14;71719.16;;;20.40
64600;BMP280;6553;48.412;9.514;2023-03-01T16:04:41;71719.69;;;20.40
64600;BMP280;6553;48.412;9.514;2023-03-01T16:07:08;71716.00;;;20.37
64600;BMP280;6553;48.412;9.514;2023-03-01T16:09:35;71716.53;;;20.37
64600;BMP280;6553;48.412;9.514;2023-03-01T16:12:01;71721.41;;;20.39
64600;BMP280;6553;48.412;9.514;2023-03-01T16:14:27;71721.00;;;20.36
64600;BMP280;6553;48.412;9.514;2023-03-01T16:16:53;71712.81;;;20.34
64600;BMP280;6553;48.412;9.514;2023-03-01T16:19:19;71717.69;;;20.36
64600;BMP280;6553;48.412;9.514;2023-03-01T16:21:45;71711.63;;;20.35